sensor_id;sensor_type;location;lat;lon;timestamp;pressure;altitude;pressure_sealevel;temperature;humidity
41886;BME280;27567;43.084;25.616;2022-09-03T00:02:03;98113.09;;;17.01;100.00
41886;BME280;27567;43.084;25.616;2022-09-03T00:04:58;98114.16;;;17.00;100.00
41886;BME280;27567;43.084;25.616;2022-09-03T00:08:13;98111.63;;;16.93;100.00
41886;BME280;27567;43.084;25.616;2022-09-03T00:11:23;98122.72;;;16.92;100.00
41886;BME280;27567;43.084;25.616;2022-09-03T00:14:13;98116.63;;;16.85;100.00
41886;BME280;27567;43.084;25.616;2022-09-03T00:17:04;98115.56;;;16.86;100.00
41886;BME280;27567;43.084;25.616;2022-09-03T00:19:59;98122.22;;;16.78;100.00
41886;BME280;27567;43.084;25.616;2022-09-03T00:22:50;98123.53;;;16.75;100.00
41886;BME280;27567;43.084;25.616;2022-09-03T00:29:03;98132.06;;;16.67;100.00
41886;BME280;27567;43.084;25.616;2022-09-03T00:31:52;98130.03;;;16.57;100.00
41886;BME280;27567;43.084;25.616;2022-09-03T00:34:43;98134.94;;;16.60;100.00
41886;BME280;27567;43.084;25.616;2022-09-03T00:37:28;98141.97;;;16.61;100.00
41886;BME280;27567;43.084;25.616;2022-09-03T00:41:04;98142.81;;;16.62;100.00
41886;BME280;27567;43.084;25.616;2022-09-03T00:43:47;98145.25;;;16.63;100.00
41886;BME280;27567;43.084;25.616;2022-09-03T00:46:45;98140.78;;;16.69;100.00
41886;BME280;27567;43.084;25.616;2022-09-03T00:49:35;98149.03;;;16.62;100.00
41886;BME280;27567;43.084;25.616;2022-09-03T00:52:27;98150.34;;;16.60;100.00
41886;BME280;27567;43.084;25.616;2022-09-03T01:07:21;98153.03;;;16.43;100.00
41886;BME280;27567;43.084;25.616;2022-09-03T01:10:53;98162.00;;;16.43;100.00
41886;BME280;27567;43.084;25.616;2022-09-03T01:13:39;98156.00;;;16.41;100.00
41886;BME280;27567;43.084;25.616;2022-09-03T01:26:08;98168.44;;;16.25;100.00
41886;BME280;27567;43.084;25.616;2022-09-03T01:29:07;98164.34;;;16.22;100.00
41886;BME280;27567;43.084;25.616;2022-09-03T01:32:00;98172.63;;;16.33;100.00
41886;BME280;27567;43.084;25.616;2022-09-03T01:38:33;98174.31;;;16.22;100.00
41886;BME280;27567;43.084;25.616;2022-09-03T01:51:05;98174.97;;;16.12;100.00
41886;BME280;27567;43.084;25.616;2022-09-03T02:00:13;98174.56;;;16.20;100.00
41886;BME280;27567;43.084;25.616;2022-09-03T02:03:01;98174.22;;;16.17;100.00
41886;BME280;27567;43.084;25.616;2022-09-03T02:05:48;98184.81;;;16.18;100.00
41886;BME280;27567;43.084;25.616;2022-09-03T02:08:36;98178.56;;;16.18;100.00
41886;BME280;27567;43.084;25.616;2022-09-03T02:11:20;98182.09;;;16.18;100.00
41886;BME280;27567;43.084;25.616;2022-09-03T02:14:04;98190.81;;;16.20;100.00
41886;BME280;27567;43.084;25.616;2022-09-03T02:16:48;98190.22;;;16.18;100.00
41886;BME280;27567;43.084;25.616;2022-09-03T02:19:33;98191.47;;;16.28;100.00
41886;BME280;27567;43.084;25.616;2022-09-03T02:22:20;98184.34;;;16.21;100.00
41886;BME280;27567;43.084;25.616;2022-09-03T02:25:05;98185.25;;;16.27;100.00
41886;BME280;27567;43.084;25.616;2022-09-03T02:27:49;98175.38;;;16.21;100.00
41886;BME280;27567;43.084;25.616;2022-09-03T02:30:34;98188.28;;;16.31;100.00
41886;BME280;27567;43.084;25.616;2022-09-03T02:33:18;98183.69;;;16.31;100.00
41886;BME280;27567;43.084;25.616;2022-09-03T02:36:05;98187.63;;;16.23;100.00
41886;BME280;27567;43.084;25.616;2022-09-03T02:38:50;98192.09;;;16.18;100.00
41886;BME280;27567;43.084;25.616;2022-09-03T02:41:34;98189.88;;;16.15;100.00
41886;BME280;27567;43.084;25.616;2022-09-03T02:44:27;98191.19;;;16.12;100.00
41886;BME280;27567;43.084;25.616;2022-09-03T02:47:14;98194.63;;;16.07;100.00
41886;BME280;27567;43.084;25.616;2022-09-03T02:49:58;98192.72;;;16.08;100.00
41886;BME280;27567;43.084;25.616;2022-09-03T02:52:42;98191.75;;;16.14;100.00
41886;BME280;27567;43.084;25.616;2022-09-03T02:55:26;98194.72;;;16.13;100.00
41886;BME280;27567;43.084;25.616;2022-09-03T02:58:10;98191.38;;;16.22;100.00
41886;BME280;27567;43.084;25.616;2022-09-03T03:00:54;98191.91;;;16.36;100.00
41886;BME280;27567;43.084;25.616;2022-09-03T03:03:38;98183.97;;;16.18;100.00
41886;BME280;27567;43.084;25.616;2022-09-03T03:06:22;98182.53;;;16.27;100.00
41886;BME280;27567;43.084;25.616;2022-09-03T03:09:06;98180.41;;;16.29;100.00
41886;BME280;27567;43.084;25.616;2022-09-03T03:11:51;98182.53;;;16.27;100.00
41886;BME280;27567;43.084;25.616;2022-09-03T03:14:36;98172.78;;;16.26;100.00
41886;BME280;27567;43.084;25.616;2022-09-03T03:17:20;98176.38;;;16.32;100.00
41886;BME280;27567;43.084;25.616;2022-09-03T03:20:04;98172.63;;;16.33;100.00
41886;BME280;27567;43.084;25.616;2022-09-03T03:22:49;98173.69;;;16.32;100.00
41886;BME280;27567;43.084;25.616;2022-09-03T03:25:34;98176.00;;;16.40;100.00
41886;BME280;27567;43.084;25.616;2022-09-03T03:28:19;98176.22;;;16.38;100.00
41886;BME280;27567;43.084;25.616;2022-09-03T03:31:08;98176.59;;;16.42;100.00
41886;BME280;27567;43.084;25.616;2022-09-03T03:33:59;98176.50;;;16.37;100.00
41886;BME280;27567;43.084;25.616;2022-09-03T03:36:43;98182.16;;;16.35;100.00
41886;BME280;27567;43.084;25.616;2022-09-03T03:39:27;98179.09;;;16.32;100.00
41886;BME280;27567;43.084;25.616;2022-09-03T03:42:11;98173.25;;;16.23;100.00
41886;BME280;27567;43.084;25.616;2022-09-03T03:44:56;98176.84;;;16.12;100.00
41886;BME280;27567;43.084;25.616;2022-09-03T03:47:41;98173.22;;;16.06;100.00
41886;BME280;27567;43.084;25.616;2022-09-03T03:50:25;98182.31;;;16.00;100.00
41886;BME280;27567;43.084;25.616;2022-09-03T03:53:08;98178.91;;;15.92;100.00
41886;BME280;27567;43.084;25.616;2022-09-03T03:55:56;98182.19;;;15.95;100.00
41886;BME280;27567;43.084;25.616;2022-09-03T03:58:40;98190.31;;;15.95;100.00
41886;BME280;27567;43.084;25.616;2022-09-03T04:01:27;98192.44;;;15.92;100.00
41886;BME280;27567;43.084;25.616;2022-09-03T04:04:11;98200.66;;;15.98;100.00
41886;BME280;27567;43.084;25.616;2022-09-03T04:06:55;98203.44;;;16.03;100.00
41886;BME280;27567;43.084;25.616;2022-09-03T04:09:39;98207.41;;;16.12;100.00
41886;BME280;27567;43.084;25.616;2022-09-03T04:12:23;98202.88;;;16.01;100.00
41886;BME280;27567;43.084;25.616;2022-09-03T04:15:07;98209.25;;;15.95;100.00
41886;BME280;27567;43.084;25.616;2022-09-03T04:17:55;98210.78;;;15.90;100.00
41886;BME280;27567;43.084;25.616;2022-09-03T04:20:39;98205.84;;;15.87;100.00
41886;BME280;27567;43.084;25.616;2022-09-03T04:23:23;98207.47;;;15.88;100.00
41886;BME280;27567;43.084;25.616;2022-09-03T04:26:09;98208.19;;;15.96;100.00
41886;BME280;27567;43.084;25.616;2022-09-03T04:28:53;98221.56;;;16.02;100.00
41886;BME280;27567;43.084;25.616;2022-09-03T04:31:38;98214.88;;;15.93;100.00
41886;BME280;27567;43.084;25.616;2022-09-03T04:34:22;98223.41;;;16.02;100.00
41886;BME280;27567;43.084;25.616;2022-09-03T04:37:06;98219.09;;;16.01;100.00
41886;BME280;27567;43.084;25.616;2022-09-03T04:39:50;98232.94;;;16.04;100.00
41886;BME280;27567;43.084;25.616;2022-09-03T04:42:35;98225.06;;;16.03;100.00
41886;BME280;27567;43.084;25.616;2022-09-03T04:45:19;98239.53;;;16.08;100.00
41886;BME280;27567;43.084;25.616;2022-09-03T04:48:03;98240.38;;;15.97;100.00
41886;BME280;27567;43.084;25.616;2022-09-03T04:50:47;98249.16;;;16.04;100.00
41886;BME280;27567;43.084;25.616;2022-09-03T04:53:37;98249.53;;;15.96;100.00
41886;BME280;27567;43.084;25.616;2022-09-03T04:56:24;98249.44;;;15.91;100.00
41886;BME280;27567;43.084;25.616;2022-09-03T04:59:08;98256.72;;;15.90;100.00
41886;BME280;27567;43.084;25.616;2022-09-03T05:01:53;98259.75;;;15.94;100.00
41886;BME280;27567;43.084;25.616;2022-09-03T05:04:39;98261.88;;;15.68;100.00
41886;BME280;27567;43.084;25.616;2022-09-03T05:07:23;98266.50;;;15.56;100.00
41886;BME280;27567;43.084;25.616;2022-09-03T05:10:08;98272.13;;;15.42;100.00
41886;BME280;27567;43.084;25.616;2022-09-03T05:13:00;98269.66;;;15.41;100.00
41886;BME280;27567;43.084;25.616;2022-09-03T05:15:45;98274.94;;;15.36;100.00
41886;BME280;27567;43.084;25.616;2022-09-03T05:18:29;98270.84;;;15.33;100.00
41886;BME280;27567;43.084;25.616;2022-09-03T05:21:15;98281.53;;;15.28;100.00
41886;BME280;27567;43.084;25.616;2022-09-03T05:24:00;98280.22;;;15.30;100.00
41886;BME280;27567;43.084;25.616;2022-09-03T05:26:45;98285.06;;;15.28;100.00
41886;BME280;27567;43.084;25.616;2022-09-03T05:29:30;98278.94;;;15.33;100.00
41886;BME280;27567;43.084;25.616;2022-09-03T05:32:14;98284.47;;;15.38;100.00
41886;BME280;27567;43.084;25.616;2022-09-03T05:35:00;98271.66;;;15.45;100.00
41886;BME280;27567;43.084;25.616;2022-09-03T05:37:44;98271.06;;;15.43;100.00
41886;BME280;27567;43.084;25.616;2022-09-03T05:40:28;98279.06;;;15.50;100.00
41886;BME280;27567;43.084;25.616;2022-09-03T05:43:12;98276.97;;;15.52;100.00
41886;BME280;27567;43.084;25.616;2022-09-03T05:46:05;98274.72;;;15.49;100.00
41886;BME280;27567;43.084;25.616;2022-09-03T05:48:49;98295.97;;;15.57;100.00
41886;BME280;27567;43.084;25.616;2022-09-03T05:51:35;98300.69;;;15.62;100.00
41886;BME280;27567;43.084;25.616;2022-09-03T05:54:19;98299.63;;;15.63;100.00
41886;BME280;27567;43.084;25.616;2022-09-03T05:57:03;98302.66;;;15.78;100.00
41886;BME280;27567;43.084;25.616;2022-09-03T05:59:47;98299.72;;;15.80;100.00
41886;BME280;27567;43.084;25.616;2022-09-03T06:02:31;98304.44;;;15.85;100.00
41886;BME280;27567;43.084;25.616;2022-09-03T06:05:19;98308.56;;;15.87;100.00
41886;BME280;27567;43.084;25.616;2022-09-03T06:08:06;98319.16;;;15.89;100.00
41886;BME280;27567;43.084;25.616;2022-09-03T06:10:57;98315.72;;;15.93;100.00
41886;BME280;27567;43.084;25.616;2022-09-03T06:13:42;98314.78;;;16.00;100.00
41886;BME280;27567;43.084;25.616;2022-09-03T06:16:26;98310.91;;;15.96;100.00
41886;BME280;27567;43.084;25.616;2022-09-03T06:19:11;98323.81;;;16.05;100.00
41886;BME280;27567;43.084;25.616;2022-09-03T06:21:56;98327.13;;;16.07;100.00
41886;BME280;27567;43.084;25.616;2022-09-03T06:24:40;98314.19;;;15.98;100.00
41886;BME280;27567;43.084;25.616;2022-09-03T06:27:24;98321.47;;;15.97;100.00
41886;BME280;27567;43.084;25.616;2022-09-03T06:30:08;98326.88;;;16.09;100.00
41886;BME280;27567;43.084;25.616;2022-09-03T06:32:52;98331.66;;;16.19;100.00
41886;BME280;27567;43.084;25.616;2022-09-03T06:35:39;98321.44;;;16.21;100.00
41886;BME280;27567;43.084;25.616;2022-09-03T06:38:26;98324.28;;;16.02;100.00
41886;BME280;27567;43.084;25.616;2022-09-03T06:41:17;98328.16;;;16.18;100.00
41886;BME280;27567;43.084;25.616;2022-09-03T06:44:06;98327.66;;;16.33;100.00
41886;BME280;27567;43.084;25.616;2022-09-03T06:46:54;98333.03;;;16.45;100.00
41886;BME280;27567;43.084;25.616;2022-09-03T06:49:38;98329.97;;;16.42;100.00
41886;BME280;27567;43.084;25.616;2022-09-03T06:52:22;98329.63;;;16.38;100.00
41886;BME280;27567;43.084;25.616;2022-09-03T06:55:07;98341.28;;;16.27;100.00
41886;BME280;27567;43.084;25.616;2022-09-03T06:57:57;98339.44;;;16.15;100.00
41886;BME280;27567;43.084;25.616;2022-09-03T07:00:47;98352.97;;;16.15;100.00
41886;BME280;27567;43.084;25.616;2022-09-03T07:03:33;98353.44;;;16.12;100.00
41886;BME280;27567;43.084;25.616;2022-09-03T07:06:18;98347.19;;;16.23;100.00
41886;BME280;27567;43.084;25.616;2022-09-03T07:09:04;98356.09;;;16.36;100.00
41886;BME280;27567;43.084;25.616;2022-09-03T07:11:48;98344.25;;;16.66;100.00
41886;BME280;27567;43.084;25.616;2022-09-03T07:14:32;98342.88;;;16.80;100.00
41886;BME280;27567;43.084;25.616;2022-09-03T07:17:16;98334.97;;;16.91;100.00
41886;BME280;27567;43.084;25.616;2022-09-03T07:20:00;98329.25;;;17.04;100.00
41886;BME280;27567;43.084;25.616;2022-09-03T07:22:44;98335.75;;;17.03;100.00
41886;BME280;27567;43.084;25.616;2022-09-03T07:25:28;98338.22;;;17.22;100.00
41886;BME280;27567;43.084;25.616;2022-09-03T07:28:14;98338.00;;;17.23;100.00
41886;BME280;27567;43.084;25.616;2022-09-03T07:31:05;98331.25;;;17.43;100.00
41886;BME280;27567;43.084;25.616;2022-09-03T07:33:54;98325.09;;;17.13;100.00
41886;BME280;27567;43.084;25.616;2022-09-03T07:36:43;98339.94;;;17.11;100.00
41886;BME280;27567;43.084;25.616;2022-09-03T07:39:29;98342.31;;;17.07;100.00
41886;BME280;27567;43.084;25.616;2022-09-03T07:42:13;98343.28;;;17.01;100.00
41886;BME280;27567;43.084;25.616;2022-09-03T07:44:57;98340.44;;;17.08;100.00
41886;BME280;27567;43.084;25.616;2022-09-03T07:47:46;98336.31;;;17.05;100.00
41886;BME280;27567;43.084;25.616;2022-09-03T07:50:32;98340.19;;;17.09;100.00
41886;BME280;27567;43.084;25.616;2022-09-03T07:53:24;98334.44;;;17.23;100.00
41886;BME280;27567;43.084;25.616;2022-09-03T07:56:11;98325.34;;;17.29;100.00
41886;BME280;27567;43.084;25.616;2022-09-03T07:58:56;98334.06;;;17.48;100.00
41886;BME280;27567;43.084;25.616;2022-09-03T08:01:41;98336.75;;;17.31;100.00
41886;BME280;27567;43.084;25.616;2022-09-03T08:04:25;98339.47;;;17.48;100.00
41886;BME280;27567;43.084;25.616;2022-09-03T08:07:08;98335.69;;;17.49;100.00
41886;BME280;27567;43.084;25.616;2022-09-03T08:09:53;98339.63;;;17.24;100.00
41886;BME280;27567;43.084;25.616;2022-09-03T08:12:38;98345.28;;;17.06;100.00
41886;BME280;27567;43.084;25.616;2022-09-03T08:15:22;98352.97;;;16.97;100.00
41886;BME280;27567;43.084;25.616;2022-09-03T08:18:06;98348.25;;;16.92;100.00
41886;BME280;27567;43.084;25.616;2022-09-03T08:20:50;98355.31;;;16.93;100.00
41886;BME280;27567;43.084;25.616;2022-09-03T08:23:39;98353.25;;;17.12;100.00
41886;BME280;27567;43.084;25.616;2022-09-03T08:26:23;98347.63;;;17.02;100.00
41886;BME280;27567;43.084;25.616;2022-09-03T08:29:08;98357.09;;;16.88;100.00
41886;BME280;27567;43.084;25.616;2022-09-03T08:31:52;98362.63;;;16.93;100.00
41886;BME280;27567;43.084;25.616;2022-09-03T08:34:36;98354.53;;;17.10;100.00
41886;BME280;27567;43.084;25.616;2022-09-03T08:37:21;98357.88;;;17.00;100.00
41886;BME280;27567;43.084;25.616;2022-09-03T08:40:08;98342.22;;;17.02;100.00
41886;BME280;27567;43.084;25.616;2022-09-03T08:43:14;98344.38;;;16.88;100.00
41886;BME280;27567;43.084;25.616;2022-09-03T08:46:01;98336.31;;;17.05;100.00
41886;BME280;27567;43.084;25.616;2022-09-03T08:48:46;98336.59;;;17.21;100.00
41886;BME280;27567;43.084;25.616;2022-09-03T08:51:31;98336.53;;;17.33;100.00
41886;BME280;27567;43.084;25.616;2022-09-03T08:54:17;98334.28;;;17.64;100.00
41886;BME280;27567;43.084;25.616;2022-09-03T08:57:04;98332.91;;;17.44;100.00
41886;BME280;27567;43.084;25.616;2022-09-03T08:59:53;98332.06;;;17.61;100.00
41886;BME280;27567;43.084;25.616;2022-09-03T09:14:49;98346.44;;;17.61;100.00
41886;BME280;27567;43.084;25.616;2022-09-03T09:20:49;98342.91;;;17.78;100.00
41886;BME280;27567;43.084;25.616;2022-09-03T09:23:39;98343.28;;;17.86;100.00
41886;BME280;27567;43.084;25.616;2022-09-03T09:26:25;98341.22;;;17.94;100.00
41886;BME280;27567;43.084;25.616;2022-09-03T09:29:15;98347.50;;;18.33;100.00
41886;BME280;27567;43.084;25.616;2022-09-03T09:32:00;98342.88;;;18.34;100.00
41886;BME280;27567;43.084;25.616;2022-09-03T09:34:44;98353.78;;;18.39;100.00
41886;BME280;27567;43.084;25.616;2022-09-03T09:37:29;98358.47;;;18.22;100.00
41886;BME280;27567;43.084;25.616;2022-09-03T09:40:26;98356.78;;;17.98;100.00
41886;BME280;27567;43.084;25.616;2022-09-03T09:46:05;98349.88;;;18.08;100.00
41886;BME280;27567;43.084;25.616;2022-09-03T09:48:56;98363.25;;;17.97;100.00
41886;BME280;27567;43.084;25.616;2022-09-03T09:51:41;98363.28;;;17.80;100.00
41886;BME280;27567;43.084;25.616;2022-09-03T09:54:25;98368.34;;;17.94;100.00
41886;BME280;27567;43.084;25.616;2022-09-03T09:57:21;98368.25;;;18.23;100.00
41886;BME280;27567;43.084;25.616;2022-09-03T10:00:09;98364.34;;;17.79;100.00
41886;BME280;27567;43.084;25.616;2022-09-03T10:02:59;98366.41;;;17.89;100.00
41886;BME280;27567;43.084;25.616;2022-09-03T10:06:00;98379.69;;;18.08;100.00
41886;BME280;27567;43.084;25.616;2022-09-03T10:09:10;98376.16;;;17.90;100.00
41886;BME280;27567;43.084;25.616;2022-09-03T10:12:14;98382.41;;;17.73;100.00
41886;BME280;27567;43.084;25.616;2022-09-03T10:21:05;98400.31;;;17.75;100.00
41886;BME280;27567;43.084;25.616;2022-09-03T10:27:11;98406.19;;;17.66;100.00
41886;BME280;27567;43.084;25.616;2022-09-03T10:29:57;98406.56;;;17.58;100.00
41886;BME280;27567;43.084;25.616;2022-09-03T10:33:09;98407.47;;;17.64;100.00
41886;BME280;27567;43.084;25.616;2022-09-03T10:36:17;98399.16;;;17.87;100.00
41886;BME280;27567;43.084;25.616;2022-09-03T10:39:16;98399.00;;;18.11;100.00
41886;BME280;27567;43.084;25.616;2022-09-03T10:42:33;98388.63;;;18.25;100.00
41886;BME280;27567;43.084;25.616;2022-09-03T10:51:45;98394.56;;;18.44;100.00
41886;BME280;27567;43.084;25.616;2022-09-03T11:07:33;98411.00;;;18.15;100.00
41886;BME280;27567;43.084;25.616;2022-09-03T11:13:12;98413.31;;;18.24;100.00
41886;BME280;27567;43.084;25.616;2022-09-03T11:16:00;98406.22;;;18.23;100.00
41886;BME280;27567;43.084;25.616;2022-09-03T11:18:53;98416.03;;;18.46;100.00
41886;BME280;27567;43.084;25.616;2022-09-03T11:21:39;98427.63;;;18.02;100.00
41886;BME280;27567;43.084;25.616;2022-09-03T11:24:28;98431.78;;;17.93;100.00
41886;BME280;27567;43.084;25.616;2022-09-03T11:27:25;98424.34;;;18.00;100.00
41886;BME280;27567;43.084;25.616;2022-09-03T11:30:31;98428.06;;;18.33;100.00
41886;BME280;27567;43.084;25.616;2022-09-03T11:33:22;98426.09;;;17.94;100.00
41886;BME280;27567;43.084;25.616;2022-09-03T11:36:16;98421.28;;;18.13;100.00
41886;BME280;27567;43.084;25.616;2022-09-03T11:39:23;98433.44;;;17.94;100.00
41886;BME280;27567;43.084;25.616;2022-09-03T11:42:29;98437.81;;;18.12;100.00
41886;BME280;27567;43.084;25.616;2022-09-03T11:45:22;98436.16;;;18.28;100.00
41886;BME280;27567;43.084;25.616;2022-09-03T11:48:30;98432.50;;;18.39;100.00
41886;BME280;27567;43.084;25.616;2022-09-03T11:57:20;98431.06;;;18.14;100.00
41886;BME280;27567;43.084;25.616;2022-09-03T12:00:15;98438.41;;;18.14;100.00
41886;BME280;27567;43.084;25.616;2022-09-03T12:03:13;98440.34;;;17.67;100.00
41886;BME280;27567;43.084;25.616;2022-09-03T12:07:01;98449.94;;;17.58;100.00
41886;BME280;27567;43.084;25.616;2022-09-03T12:18:45;98449.53;;;17.83;100.00
41886;BME280;27567;43.084;25.616;2022-09-03T12:21:39;98448.94;;;17.47;100.00
41886;BME280;27567;43.084;25.616;2022-09-03T12:24:25;98451.34;;;17.15;100.00
41886;BME280;27567;43.084;25.616;2022-09-03T12:27:24;98450.81;;;17.47;100.00
41886;BME280;27567;43.084;25.616;2022-09-03T12:30:17;98455.44;;;17.46;100.00
41886;BME280;27567;43.084;25.616;2022-09-03T12:33:04;98478.44;;;17.43;100.00
41886;BME280;27567;43.084;25.616;2022-09-03T12:35:56;98455.50;;;17.34;100.00
41886;BME280;27567;43.084;25.616;2022-09-03T12:38:40;98461.91;;;17.45;100.00
41886;BME280;27567;43.084;25.616;2022-09-03T12:41:27;98466.00;;;17.31;100.00
41886;BME280;27567;43.084;25.616;2022-09-03T12:44:12;98475.72;;;17.15;100.00
41886;BME280;27567;43.084;25.616;2022-09-03T12:47:22;98458.34;;;17.27;100.00
41886;BME280;27567;43.084;25.616;2022-09-03T12:50:09;98457.22;;;17.57;100.00
41886;BME280;27567;43.084;25.616;2022-09-03T12:53:01;98453.16;;;18.06;100.00
41886;BME280;27567;43.084;25.616;2022-09-03T13:01:32;98444.72;;;18.02;100.00
41886;BME280;27567;43.084;25.616;2022-09-03T13:04:25;98445.09;;;18.28;100.00
41886;BME280;27567;43.084;25.616;2022-09-03T13:07:18;98442.84;;;18.42;100.00
41886;BME280;27567;43.084;25.616;2022-09-03T13:10:06;98439.97;;;18.10;100.00
41886;BME280;27567;43.084;25.616;2022-09-03T13:13:02;98451.44;;;17.66;100.00
41886;BME280;27567;43.084;25.616;2022-09-03T13:30:58;98458.44;;;17.04;100.00
41886;BME280;27567;43.084;25.616;2022-09-03T13:33:47;98459.09;;;16.70;100.00
41886;BME280;27567;43.084;25.616;2022-09-03T13:36:50;98474.38;;;16.76;100.00
41886;BME280;27567;43.084;25.616;2022-09-03T13:39:45;98488.97;;;16.63;100.00
41886;BME280;27567;43.084;25.616;2022-09-03T13:42:40;98477.00;;;16.59;100.00
41886;BME280;27567;43.084;25.616;2022-09-03T13:45:39;98472.09;;;16.32;100.00
41886;BME280;27567;43.084;25.616;2022-09-03T13:48:31;98489.84;;;16.16;100.00
41886;BME280;27567;43.084;25.616;2022-09-03T13:51:49;98478.53;;;16.07;100.00
41886;BME280;27567;43.084;25.616;2022-09-03T13:54:40;98487.22;;;15.86;100.00
41886;BME280;27567;43.084;25.616;2022-09-03T14:04:00;98508.97;;;15.60;100.00
41886;BME280;27567;43.084;25.616;2022-09-03T14:06:54;98509.88;;;15.54;100.00
41886;BME280;27567;43.084;25.616;2022-09-03T14:10:00;98508.44;;;15.40;100.00
41886;BME280;27567;43.084;25.616;2022-09-03T14:12:54;98506.78;;;15.39;100.00
41886;BME280;27567;43.084;25.616;2022-09-03T14:15:59;98517.38;;;15.40;100.00
41886;BME280;27567;43.084;25.616;2022-09-03T14:21:53;98515.53;;;15.53;100.00
41886;BME280;27567;43.084;25.616;2022-09-03T14:27:41;98522.53;;;15.42;100.00
41886;BME280;27567;43.084;25.616;2022-09-03T14:30:48;98515.97;;;15.50;100.00
41886;BME280;27567;43.084;25.616;2022-09-03T14:34:06;98512.38;;;15.56;100.00
41886;BME280;27567;43.084;25.616;2022-09-03T14:49:16;98522.22;;;15.50;100.00
41886;BME280;27567;43.084;25.616;2022-09-03T15:01:33;98523.13;;;15.13;100.00
41886;BME280;27567;43.084;25.616;2022-09-03T15:04:23;98526.88;;;15.12;100.00
41886;BME280;27567;43.084;25.616;2022-09-03T15:10:47;98524.44;;;15.23;100.00
41886;BME280;27567;43.084;25.616;2022-09-03T15:13:44;98540.63;;;15.23;100.00
41886;BME280;27567;43.084;25.616;2022-09-03T15:16:43;98529.56;;;15.12;100.00
41886;BME280;27567;43.084;25.616;2022-09-03T15:29:10;98558.69;;;15.41;100.00
41886;BME280;27567;43.084;25.616;2022-09-03T15:35:09;98550.44;;;15.36;100.00
41886;BME280;27567;43.084;25.616;2022-09-03T15:37:59;98552.66;;;15.27;100.00
41886;BME280;27567;43.084;25.616;2022-09-03T15:40:50;98547.34;;;15.20;100.00
41886;BME280;27567;43.084;25.616;2022-09-03T15:43:37;98543.50;;;15.28;100.00
41886;BME280;27567;43.084;25.616;2022-09-03T15:46:36;98542.13;;;15.18;100.00
41886;BME280;27567;43.084;25.616;2022-09-03T15:55:43;98552.19;;;15.30;100.00
41886;BME280;27567;43.084;25.616;2022-09-03T15:58:33;98550.03;;;15.20;100.00
41886;BME280;27567;43.084;25.616;2022-09-03T16:01:26;98556.84;;;15.23;100.00
41886;BME280;27567;43.084;25.616;2022-09-03T16:07:09;98554.97;;;15.23;100.00
41886;BME280;27567;43.084;25.616;2022-09-03T16:22:29;98556.78;;;15.11;100.00
41886;BME280;27567;43.084;25.616;2022-09-03T16:28:24;98559.31;;;15.06;100.00
41886;BME280;27567;43.084;25.616;2022-09-03T16:37:18;98551.47;;;15.04;100.00
41886;BME280;27567;43.084;25.616;2022-09-03T16:58:20;98577.78;;;15.09;100.00
41886;BME280;27567;43.084;25.616;2022-09-03T17:04:11;98587.97;;;15.07;100.00
41886;BME280;27567;43.084;25.616;2022-09-03T17:16:15;98603.56;;;14.86;100.00
41886;BME280;27567;43.084;25.616;2022-09-03T17:19:13;98595.34;;;14.99;100.00
41886;BME280;27567;43.084;25.616;2022-09-03T17:25:01;98601.72;;;15.05;100.00
41886;BME280;27567;43.084;25.616;2022-09-03T17:30:55;98607.47;;;15.09;100.00
41886;BME280;27567;43.084;25.616;2022-09-03T17:36:28;98605.97;;;15.13;100.00
41886;BME280;27567;43.084;25.616;2022-09-03T17:42:13;98612.16;;;15.01;100.00
41886;BME280;27567;43.084;25.616;2022-09-03T17:45:08;98616.88;;;15.06;100.00
41886;BME280;27567;43.084;25.616;2022-09-03T17:51:11;98625.06;;;14.93;100.00
41886;BME280;27567;43.084;25.616;2022-09-03T17:57:14;98630.72;;;15.10;100.00
41886;BME280;27567;43.084;25.616;2022-09-03T18:00:09;98633.22;;;15.11;100.00
41886;BME280;27567;43.084;25.616;2022-09-03T18:06:19;98647.97;;;15.09;100.00
41886;BME280;27567;43.084;25.616;2022-09-03T18:09:19;98653.63;;;15.07;100.00
41886;BME280;27567;43.084;25.616;2022-09-03T18:15:21;98657.09;;;15.14;100.00
41886;BME280;27567;43.084;25.616;2022-09-03T18:18:19;98661.88;;;15.12;100.00
41886;BME280;27567;43.084;25.616;2022-09-03T18:21:11;98662.84;;;15.18;100.00
41886;BME280;27567;43.084;25.616;2022-09-03T18:24:28;98670.78;;;15.13;100.00
41886;BME280;27567;43.084;25.616;2022-09-03T18:30:41;98669.91;;;15.19;100.00
41886;BME280;27567;43.084;25.616;2022-09-03T18:33:44;98672.25;;;15.15;100.00
41886;BME280;27567;43.084;25.616;2022-09-03T18:36:47;98666.31;;;15.25;100.00
41886;BME280;27567;43.084;25.616;2022-09-03T18:39:50;98669.66;;;15.21;100.00
41886;BME280;27567;43.084;25.616;2022-09-03T18:49:39;98665.84;;;15.10;100.00
41886;BME280;27567;43.084;25.616;2022-09-03T18:52:51;98662.63;;;15.20;100.00
41886;BME280;27567;43.084;25.616;2022-09-03T18:55:59;98659.53;;;15.16;100.00
41886;BME280;27567;43.084;25.616;2022-09-03T18:59:26;98658.72;;;15.15;100.00
41886;BME280;27567;43.084;25.616;2022-09-03T19:09:29;98676.88;;;15.08;100.00
41886;BME280;27567;43.084;25.616;2022-09-03T19:22:38;98684.97;;;14.83;100.00
41886;BME280;27567;43.084;25.616;2022-09-03T19:25:42;98692.00;;;14.91;100.00
41886;BME280;27567;43.084;25.616;2022-09-03T19:28:46;98685.56;;;14.85;100.00
41886;BME280;27567;43.084;25.616;2022-09-03T19:32:06;98678.31;;;14.85;100.00
41886;BME280;27567;43.084;25.616;2022-09-03T19:35:18;98687.84;;;14.88;100.00